Terminal Aerodrome Forecast
Issued by NWS

Home | Current Version | Previous Version | Text Only | Print | Product List | Glossary On
Versions: 1 2 3 4 5 6 7 8 9 10 11 12 13 14 15 16 17 18 19 20
000
FTUS42 KTBW 261700
TAFPGD
TAF
KPGD 261740Z 2618/2718 07007KT P6SM BKN025
     FM262300 07006KT P6SM SCT020 BKN030
     FM270900 04005KT P6SM SCT015 BKN035
     FM271400 05007KT P6SM FEW030 SCT250=

USA.gov is the U.S. government's official web portal to all federal, state and local government web resources and services.